• Join FlightAware (Why Join?)
  • Login
  • US Flag 
12:38PM EDT


 

Airport Tracker/Info


-or-


 

Live Flight TrackerFlight Track Log ✈ CES2227 ✈ 30-Nov-2013 ✈ ZSPD / PVG - ZUJZ / JZH

Flight Track Log - Related Links

Times and Time Zones

All times are in EST time to prevent confusion due to time zone crossing. See the CES2227 flight status page for this flight to view local times or setup timezone preferences in your user account.

Time Position Orientation Groundspeed Altitude Reporting Facility
EST Latitude Longitude Course Direction KTS MPH feet Rate Location/Type
03:39AM 31.4216 120.0650 281° West  Level Estimated
03:40AM 31.4364 119.9687 280° West  Level Estimated
03:41AM 31.4512 119.8724 280° West  Level Estimated
03:42AM 31.4659 119.7761 280° West  Level Estimated
03:43AM 31.4804 119.6798 280° West  Level Estimated
03:44AM 31.4950 119.5834 280° West  Level Estimated
03:45AM 31.5094 119.4870 280° West  Level Estimated
03:46AM 31.5238 119.3905 280° West  Level Estimated
03:47AM 31.5381 119.2941 280° West  Level Estimated
03:48AM 31.5523 119.1976 280° West  Level Estimated
03:49AM 31.5665 119.1010 280° West  Level Estimated
03:50AM 31.5806 119.0045 280° West  Level Estimated
03:51AM 31.5946 118.9079 280° West  Level Estimated
03:52AM 31.6085 118.8113 280° West  Level Estimated
03:53AM 31.6224 118.7146 280° West  Level Estimated
03:54AM 31.6362 118.6179 280° West  Level Estimated
03:55AM 31.6499 118.5212 279° West  Level Estimated
03:56AM 31.6636 118.4245 279° West  Level Estimated
03:57AM 31.6772 118.3277 279° West  Level Estimated
03:58AM 31.6907 118.2309 279° West  Level Estimated
03:59AM 31.7041 118.1341 279° West  Level Estimated
04:00AM 31.7175 118.0373 279° West  Level Estimated
04:01AM 31.7307 117.9404 279° West  Level Estimated
04:02AM 31.7440 117.8435 279° West  Level Estimated
04:03AM 31.7571 117.7466 279° West  Level Estimated
04:04AM 31.7702 117.6496 279° West  Level Estimated
04:05AM 31.7832 117.5526 279° West  Level Estimated
04:06AM 31.7961 117.4556 279° West  Level Estimated
04:07AM 31.8089 117.3586 279° West  Level Estimated
04:08AM 31.8217 117.2615 279° West  Level Estimated
04:09AM 31.8344 117.1644 279° West  Level Estimated
04:10AM 31.8470 117.0673 279° West  Level Estimated
04:11AM 31.8596 116.9702 279° West  Level Estimated
04:12AM 31.8720 116.8730 279° West  Level Estimated
04:13AM 31.8845 116.7758 279° West  Level Estimated
04:14AM 31.8968 116.6786 279° West  Level Estimated
04:15AM 31.9090 116.5813 278° West  Level Estimated
04:16AM 31.9212 116.4841 278° West  Level Estimated
04:17AM 31.9333 116.3868 278° West  Level Estimated
04:18AM 31.9454 116.2894 278° West  Level Estimated
04:19AM 31.9573 116.1921 278° West  Level Estimated
04:20AM 31.9692 116.0947 278° West  Level Estimated
04:21AM 31.9810 115.9973 278° West  Level Estimated
04:22AM 31.9927 115.8999 278° West  Level Estimated
04:23AM 32.0044 115.8024 278° West  Level Estimated
04:24AM 32.0160 115.7049 278° West  Level Estimated
04:25AM 32.0275 115.6074 278° West  Level Estimated
04:26AM 32.0389 115.5099 278° West  Level Estimated
04:27AM 32.0503 115.4124 278° West  Level Estimated
04:28AM 32.0616 115.3148 278° West  Level Estimated
04:29AM 32.0728 115.2172 278° West  Level Estimated
04:30AM 32.0839 115.1196 278° West  Level Estimated
04:31AM 32.0950 115.0219 278° West  Level Estimated
04:32AM 32.1060 114.9242 278° West  Level Estimated
04:33AM 32.1169 114.8266 278° West  Level Estimated
04:34AM 32.1277 114.7288 277° West  Level Estimated
04:35AM 32.1385 114.6311 277° West  Level Estimated
04:36AM 32.1492 114.5333 277° West  Level Estimated
04:37AM 32.1598 114.4356 277° West  Level Estimated
04:38AM 32.1703 114.3378 277° West  Level Estimated
04:39AM 32.1808 114.2399 277° West  Level Estimated
04:40AM 32.1912 114.1421 277° West  Level Estimated
04:41AM 32.2015 114.0442 277° West  Level Estimated
04:42AM 32.2117 113.9463 277° West  Level Estimated
04:43AM 32.2219 113.8484 277° West  Level Estimated
04:44AM 32.2320 113.7504 277° West  Level Estimated
04:45AM 32.2420 113.6525 277° West  Level Estimated
04:46AM 32.2519 113.5545 277° West  Level Estimated
04:47AM 32.2618 113.4565 277° West  Level Estimated
04:48AM 32.2716 113.3585 277° West  Level Estimated
04:49AM 32.2813 113.2604 277° West  Level Estimated
04:50AM 32.2909 113.1623 277° West  Level Estimated
04:51AM 32.3005 113.0642 277° West  Level Estimated
04:52AM 32.3100 112.9661 277° West  Level Estimated
04:53AM 32.3194 112.8680 276° West  Level Estimated
04:54AM 32.3287 112.7699 276° West  Level Estimated
04:55AM 32.3379 112.6717 276° West  Level Estimated
04:56AM 32.3471 112.5735 276° West  Level Estimated
04:57AM 32.3562 112.4753 276° West  Level Estimated
04:58AM 32.3652 112.3771 276° West  Level Estimated
04:59AM 32.3742 112.2788 276° West  Level Estimated
05:00AM 32.3830 112.1805 276° West  Level Estimated
05:01AM 32.3918 112.0823 276° West  Level Estimated
05:02AM 32.4006 111.9839 276° West  Level Estimated
05:03AM 32.4092 111.8856 276° West  Level Estimated
05:04AM 32.4178 111.7873 276° West  Level Estimated
05:05AM 32.4263 111.6889 276° West  Level Estimated
05:06AM 32.4347 111.5905 276° West  Level Estimated
05:07AM 32.4430 111.4921 276° West  Level Estimated
05:08AM 32.4513 111.3937 276° West  Level Estimated
05:09AM 32.4594 111.2953 276° West  Level Estimated
05:10AM 32.4676 111.1968 276° West  Level Estimated
05:11AM 32.4756 111.0983 276° West  Level Estimated
05:12AM 32.4835 110.9998 275° West  Level Estimated
05:13AM 32.4914 110.9013 275° West  Level Estimated
05:14AM 32.4992 110.8028 275° West  Level Estimated
05:15AM 32.5069 110.7043 275° West  Level Estimated
05:16AM 32.5146 110.6057 275° West  Level Estimated
05:17AM 32.5222 110.5071 275° West  Level Estimated
05:18AM 32.5297 110.4086 275° West  Level Estimated
05:19AM 32.5371 110.3100 275° West  Level Estimated
05:20AM 32.5444 110.2113 275° West  Level Estimated
05:21AM 32.5517 110.1127 275° West  Level Estimated
05:22AM 32.5588 110.0140 275° West  Level Estimated
05:23AM 32.5660 109.9154 275° West  Level Estimated
05:24AM 32.5730 109.8167 275° West  Level Estimated
05:25AM 32.5799 109.7180 275° West  Level Estimated
05:26AM 32.5868 109.6192 275° West  Level Estimated
05:27AM 32.5936 109.5205 275° West  Level Estimated
05:28AM 32.6003 109.4218 275° West  Level Estimated
05:29AM 32.6070 109.3230 275° West  Level Estimated
05:30AM 32.6135 109.2242 275° West  Level Estimated
05:31AM 32.6200 109.1254 274° West  Level Estimated
05:32AM 32.6264 109.0266 274° West  Level Estimated
05:33AM 32.6328 108.9278 274° West  Level Estimated
05:34AM 32.6390 108.8290 274° West  Level Estimated
05:35AM 32.6452 108.7301 274° West  Level Estimated
05:36AM 32.6513 108.6313 274° West  Level Estimated
05:37AM 32.6574 108.5324 274° West  Level Estimated
05:38AM 32.6633 108.4335 274° West  Level Estimated
05:39AM 32.6692 108.3346 274° West  Level Estimated
05:40AM 32.6750 108.2357 274° West  Level Estimated
05:41AM 32.6807 108.1368 274° West  Level Estimated
05:42AM 32.6863 108.0378 274° West  Level Estimated
05:43AM 32.6919 107.9389 274° West  Level Estimated
05:44AM 32.6974 107.8399 274° West  Level Estimated
05:45AM 32.7028 107.7409 274° West  Level Estimated
05:46AM 32.7081 107.6420 274° West  Level Estimated
05:47AM 32.7133 107.5430 274° West  Level Estimated
05:48AM 32.7185 107.4439 274° West  Level Estimated
05:49AM 32.7236 107.3449 274° West  Level Estimated
05:50AM 32.7286 107.2459 273° West  Level Estimated
05:51AM 32.7336 107.1469 273° West  Level Estimated
05:52AM 32.7384 107.0478 273° West  Level Estimated
05:53AM 32.7432 106.9487 273° West  Level Estimated
05:54AM 32.7479 106.8496 273° West  Level Estimated
05:55AM 32.7525 106.7506 273° West  Level Estimated
05:56AM 32.7571 106.6515 273° West  Level Estimated
05:57AM 32.7616 106.5524 273° West  Level Estimated
05:58AM 32.7659 106.4532 273° West  Level Estimated
05:59AM 32.7703 106.3541 273° West  Level Estimated
06:00AM 32.7745 106.2550 273° West  Level Estimated
06:01AM 32.7787 106.1558 273° West  Level Estimated
06:02AM 32.7827 106.0567 273° West  Level Estimated
06:03AM 32.7867 105.9575 273° West  Level Estimated
06:04AM 32.7907 105.8583 273° West  Level Estimated
06:05AM 32.7945 105.7591 273° West  Level Estimated
06:06AM 32.7983 105.6600 273° West  Level Estimated
06:07AM 32.8020 105.5608 273° West  Level Estimated
06:08AM 32.8056 105.4615 273° West  Level Estimated
06:09AM 32.8091 105.3623 272° West  Level Estimated
06:10AM 32.8126 105.2631 272° West  Level Estimated
06:11AM 32.8159 105.1639 272° West  Level Estimated
06:12AM 32.8192 105.0647 272° West  Level Estimated
06:13AM 32.8225 104.9654 272° West  Level Estimated
06:14AM 32.8256 104.8662 272° West  Level Estimated
06:15AM 32.8288 104.7612 272° West  Level Estimated
06:16AM 32.8320 104.6563 272° West  Level Estimated
06:17AM 32.8350 104.5513 272° West  Level Estimated
06:18AM 32.8380 104.4464 272° West  Level Estimated
06:19AM 32.8409 104.3414 272° West  Level Estimated
06:20AM 32.8437 104.2365 272° West  Level Estimated
06:21AM 32.8464 104.1315 272° West  Level Estimated
06:22AM 32.8490 104.0265 272° West  Level Estimated
06:23AM 32.8516 103.9215 272° West  Level Estimated
06:24AM 32.8540 103.8165 272° West  Level Estimated
06:25AM 32.8564 103.7115 272° West  Level Estimated
06:26AM 32.8570 103.6830 272° West  Level Estimated
06:27AM 32.8570 103.6830 North  Level Estimated
06:28AM 32.8570 103.6830 North  Level Estimated
06:29AM 32.8570 103.6830 North  Level Estimated
06:30AM 32.8570 103.6830 North  Level Estimated
06:31AM 32.8570 103.6830 North  Level Estimated
06:32AM 32.8570 103.6830 North  Level Estimated